Time;durP1;ratioP1;P1;durP2;ratioP2;P2;SDS_P1;SDS_P2;PMS_P1;PMS_P2;Temp;Humidity;BMP_temperature;BMP_pressure;BME280_temperature;BME280_humidity;BME280_pressure;Samples;Min_cycle;Max_cycle;Signal;HPM_P1;HPM_P2
2023/09/22 00:00:59;;;;;;;15.03;8.97;;;15.60;84.70;;;;;;4987059;28;20544;-87
2023/09/22 00:03:28;;;;;;;15.30;8.88;;;15.60;84.70;;;;;;4953299;28;20126;-87
2023/09/22 00:05:57;;;;;;;16.00;9.32;;;15.60;84.80;;;;;;5003451;28;20182;-86
2023/09/22 00:08:24;;;;;;;15.52;8.80;;;15.60;84.90;;;;;;4954760;28;20058;-87
2023/09/22 00:10:54;;;;;;;13.40;8.32;;;15.50;85.00;;;;;;5006324;28;20055;-87
2023/09/22 00:13:21;;;;;;;13.30;8.23;;;15.60;85.10;;;;;;4987358;28;20573;-86
2023/09/22 00:15:48;;;;;;;13.90;8.55;;;15.60;85.00;;;;;;5004919;28;20051;-87
2023/09/22 00:18:15;;;;;;;15.10;8.45;;;15.60;85.10;;;;;;4955095;28;20094;-86
2023/09/22 00:20:43;;;;;;;15.60;9.50;;;15.60;85.10;;;;;;5009332;28;20146;-87
2023/09/22 00:23:14;;;;;;;14.13;8.43;;;15.60;85.30;;;;;;5004005;28;20058;-87
2023/09/22 00:25:41;;;;;;;14.47;8.27;;;15.60;85.40;;;;;;5003823;28;20506;-86
2023/09/22 00:28:09;;;;;;;14.85;9.18;;;15.60;85.30;;;;;;5015254;28;20106;-86
2023/09/22 00:30:37;;;;;;;14.88;8.73;;;15.60;85.50;;;;;;4987863;28;20054;-86
2023/09/22 00:33:05;;;;;;;12.63;8.20;;;15.60;85.50;;;;;;4954478;28;20055;-87
2023/09/22 00:35:32;;;;;;;16.30;8.90;;;15.60;85.40;;;;;;5002322;28;20066;-87
2023/09/22 00:38:01;;;;;;;15.20;8.37;;;15.60;85.50;;;;;;4986015;28;20051;-86
2023/09/22 00:40:30;;;;;;;14.30;8.68;;;15.60;85.50;;;;;;4986802;28;20056;-87
2023/09/22 00:43:11;;;;;;;13.70;8.48;;;15.60;85.70;;;;;;4987143;28;20067;-87
2023/09/22 00:45:46;;;;;;;14.10;9.02;;;15.60;85.60;;;;;;4996293;28;20063;-86
2023/09/22 00:48:21;;;;;;;14.63;8.38;;;15.60;85.80;;;;;;5005577;28;20052;-87
2023/09/22 00:50:52;;;;;;;13.90;8.23;;;15.60;85.70;;;;;;5002349;28;20047;-86
2023/09/22 00:53:20;;;;;;;13.95;8.43;;;15.60;85.80;;;;;;4969874;28;20059;-87
2023/09/22 00:55:51;;;;;;;15.10;8.57;;;15.60;85.70;;;;;;5001801;28;20047;-87
2023/09/22 00:58:20;;;;;;;13.63;8.65;;;15.60;85.80;;;;;;5002926;28;20136;-87
2023/09/22 01:00:49;;;;;;;14.55;8.30;;;15.50;85.90;;;;;;4986484;28;20510;-87
2023/09/22 01:03:19;;;;;;;13.33;8.17;;;15.50;85.80;;;;;;4961741;28;20133;-86
2023/09/22 01:05:47;;;;;;;13.82;7.97;;;15.50;85.80;;;;;;4983346;28;20059;-86
2023/09/22 01:08:15;;;;;;;13.95;7.93;;;15.50;85.70;;;;;;5003018;28;20091;-86
2023/09/22 01:10:43;;;;;;;14.32;8.75;;;15.50;85.80;;;;;;4985966;28;20567;-86
2023/09/22 01:13:12;;;;;;;14.38;8.73;;;15.50;85.90;;;;;;4954493;28;20421;-86
2023/09/22 01:15:42;;;;;;;13.20;8.00;;;15.50;85.90;;;;;;4954433;28;20055;-86
2023/09/22 01:18:13;;;;;;;15.45;9.05;;;15.50;86.10;;;;;;5002625;28;20149;-86
2023/09/22 01:20:40;;;;;;;13.10;8.00;;;15.50;86.00;;;;;;4992120;28;20243;-86
2023/09/22 01:23:09;;;;;;;14.07;8.80;;;15.50;86.00;;;;;;4986676;28;20043;-87
2023/09/22 01:25:36;;;;;;;14.48;8.73;;;15.40;86.10;;;;;;5007273;28;20134;-87
2023/09/22 01:28:03;;;;;;;14.87;9.23;;;15.50;86.20;;;;;;4986385;28;20040;-86
2023/09/22 01:30:32;;;;;;;17.70;9.27;;;15.40;86.20;;;;;;4969270;28;20153;-87
2023/09/22 01:33:04;;;;;;;14.90;8.95;;;15.40;86.20;;;;;;4968983;28;20146;-87
2023/09/22 01:35:32;;;;;;;14.07;8.68;;;15.40;86.20;;;;;;4953524;28;20058;-87
2023/09/22 01:38:10;;;;;;;15.48;8.98;;;15.40;86.20;;;;;;5002251;28;20105;-86
2023/09/22 01:40:38;;;;;;;16.70;9.37;;;15.40;86.30;;;;;;4969721;28;20134;-86
2023/09/22 01:43:05;;;;;;;15.80;9.50;;;15.40;86.10;;;;;;4983283;28;20047;-86
2023/09/22 01:45:33;;;;;;;16.45;9.70;;;15.40;86.20;;;;;;4979032;28;20161;-87
2023/09/22 01:48:00;;;;;;;15.00;9.50;;;15.30;86.10;;;;;;5001823;28;20175;-87
2023/09/22 01:50:28;;;;;;;16.08;9.68;;;15.30;86.30;;;;;;5001805;28;20126;-86
2023/09/22 01:52:55;;;;;;;16.20;10.07;;;15.30;86.20;;;;;;4964812;28;20585;-87
2023/09/22 01:55:22;;;;;;;15.90;10.20;;;15.30;86.40;;;;;;4962041;28;20053;-87
2023/09/22 01:57:54;;;;;;;16.52;10.05;;;15.30;86.40;;;;;;5002403;28;20075;-86
2023/09/22 02:00:26;;;;;;;16.27;9.27;;;15.30;86.30;;;;;;4969590;28;20146;-87
2023/09/22 02:02:53;;;;;;;14.93;9.25;;;15.30;86.30;;;;;;5001807;28;20054;-86
2023/09/22 02:05:21;;;;;;;16.13;9.50;;;15.20;86.40;;;;;;4987587;28;20696;-87
2023/09/22 02:07:49;;;;;;;15.00;9.65;;;15.20;86.30;;;;;;4985785;28;20142;-86
2023/09/22 02:10:16;;;;;;;15.18;8.68;;;15.20;86.30;;;;;;4985234;28;20054;-87
2023/09/22 02:12:44;;;;;;;15.15;9.07;;;15.20;86.30;;;;;;5001293;28;20526;-87
2023/09/22 02:15:14;;;;;;;17.45;9.55;;;15.20;86.30;;;;;;4985331;28;20102;-87
2023/09/22 02:17:46;;;;;;;15.17;9.13;;;15.20;86.30;;;;;;5002222;28;20062;-87
2023/09/22 02:20:21;;;;;;;14.10;8.32;;;15.20;86.20;;;;;;4953127;28;20071;-86
2023/09/22 02:22:49;;;;;;;18.08;9.25;;;15.20;86.10;;;;;;4979699;28;20138;-86
2023/09/22 02:25:17;;;;;;;15.07;8.55;;;15.10;86.10;;;;;;5010217;28;20560;-86
2023/09/22 02:27:45;;;;;;;15.55;9.15;;;15.10;85.90;;;;;;5001943;28;20567;-86
2023/09/22 02:30:14;;;;;;;14.87;8.50;;;15.10;85.90;;;;;;4981840;28;20047;-86
2023/09/22 02:32:44;;;;;;;15.98;8.80;;;15.00;85.80;;;;;;5004159;28;20060;-87
2023/09/22 02:35:11;;;;;;;15.70;9.40;;;15.00;85.70;;;;;;4984350;28;20637;-86
2023/09/22 02:37:40;;;;;;;19.38;9.57;;;15.00;85.70;;;;;;4985800;28;20044;-86
2023/09/22 02:40:12;;;;;;;15.60;9.13;;;15.00;85.80;;;;;;4952288;28;20065;-87
2023/09/22 02:42:39;;;;;;;16.70;9.03;;;15.00;85.80;;;;;;4985762;28;20588;-87
2023/09/22 02:45:10;;;;;;;15.75;8.68;;;15.00;85.80;;;;;;5001531;28;20751;-87
2023/09/22 02:47:41;;;;;;;16.58;9.75;;;15.00;85.70;;;;;;5001463;28;20043;-86
2023/09/22 02:50:10;;;;;;;16.90;9.43;;;15.00;85.90;;;;;;5001543;28;20513;-86
2023/09/22 02:52:38;;;;;;;17.88;9.52;;;14.90;86.00;;;;;;5001116;28;20422;-86
2023/09/22 02:55:08;;;;;;;18.67;9.73;;;14.90;86.00;;;;;;4957368;28;20494;-87
2023/09/22 02:57:35;;;;;;;18.70;10.85;;;14.90;86.10;;;;;;4956169;28;20499;-86
2023/09/22 03:00:11;;;;;;;19.23;10.98;;;14.90;86.20;;;;;;4968316;28;20139;-86
2023/09/22 03:02:39;;;;;;;16.65;9.98;;;14.90;86.30;;;;;;4977597;28;20043;-86
2023/09/22 03:05:09;;;;;;;18.10;10.15;;;14.90;86.20;;;;;;4995091;28;20126;-87
2023/09/22 03:07:36;;;;;;;17.07;9.43;;;14.90;86.40;;;;;;4969031;28;20056;-87
2023/09/22 03:10:06;;;;;;;19.75;11.05;;;14.90;86.30;;;;;;4984129;28;20063;-86
2023/09/22 03:12:34;;;;;;;20.27;10.68;;;14.80;86.40;;;;;;4961178;28;20047;-86
2023/09/22 03:15:06;;;;;;;19.25;9.68;;;14.80;86.40;;;;;;4995327;28;20043;-87
2023/09/22 03:17:34;;;;;;;18.73;11.55;;;14.80;86.60;;;;;;4968689;28;20056;-87
2023/09/22 03:20:07;;;;;;;17.63;9.73;;;14.80;86.70;;;;;;5000826;28;20047;-86
2023/09/22 03:22:35;;;;;;;17.63;10.20;;;14.80;86.60;;;;;;5001733;28;20465;-87
2023/09/22 03:25:02;;;;;;;18.38;10.18;;;14.80;86.70;;;;;;4970247;28;20059;-87
2023/09/22 03:27:33;;;;;;;17.23;9.85;;;14.80;86.60;;;;;;4970955;28;20434;-87
2023/09/22 03:30:01;;;;;;;16.63;9.35;;;14.80;86.60;;;;;;4988332;28;20625;-87
2023/09/22 03:32:29;;;;;;;17.83;8.80;;;14.70;86.50;;;;;;5008092;28;20086;-86
2023/09/22 03:34:58;;;;;;;16.70;8.77;;;14.80;86.80;;;;;;5003718;28;20059;-86
2023/09/22 03:37:29;;;;;;;12.40;7.05;;;14.80;86.70;;;;;;4958057;28;20050;-86
2023/09/22 03:39:56;;;;;;;15.90;8.55;;;14.70;86.60;;;;;;4988179;28;20066;-87
2023/09/22 03:42:26;;;;;;;14.60;6.90;;;14.70;86.60;;;;;;4972887;28;20059;-86
2023/09/22 03:44:54;;;;;;;18.00;8.80;;;14.70;86.50;;;;;;5004341;28;20059;-86
2023/09/22 03:47:21;;;;;;;16.02;8.30;;;14.70;86.70;;;;;;4987877;28;20593;-86
2023/09/22 03:49:48;;;;;;;14.73;8.90;;;14.60;86.70;;;;;;4971317;28;20051;-86
2023/09/22 03:52:15;;;;;;;19.42;9.18;;;14.60;86.80;;;;;;4988179;28;20173;-87
2023/09/22 03:54:46;;;;;;;17.67;9.27;;;14.60;86.70;;;;;;4971379;28;20715;-87
2023/09/22 03:57:16;;;;;;;19.43;10.07;;;14.60;86.70;;;;;;4968335;28;20054;-86
2023/09/22 03:59:43;;;;;;;18.60;9.52;;;14.60;86.80;;;;;;5006292;28;20102;-86
2023/09/22 04:02:10;;;;;;;19.55;10.02;;;14.60;86.70;;;;;;4971224;28;20059;-86
2023/09/22 04:04:38;;;;;;;15.10;7.90;;;14.50;86.70;;;;;;4970775;28;20074;-86
2023/09/22 04:07:05;;;;;;;19.42;10.05;;;14.50;86.80;;;;;;4955323;28;20058;-86
2023/09/22 04:09:32;;;;;;;17.43;9.90;;;14.50;86.60;;;;;;5011379;28;20066;-86
2023/09/22 04:12:00;;;;;;;20.85;10.23;;;14.50;86.70;;;;;;5004054;28;20059;-86
2023/09/22 04:14:27;;;;;;;19.35;10.25;;;14.50;86.60;;;;;;4987215;28;20182;-86
2023/09/22 04:16:54;;;;;;;20.00;9.93;;;14.50;86.60;;;;;;4987466;28;20198;-86
2023/09/22 04:19:21;;;;;;;19.63;11.20;;;14.50;86.60;;;;;;5003958;28;20134;-86
2023/09/22 04:21:49;;;;;;;21.13;10.73;;;14.40;86.60;;;;;;4954786;28;20058;-86
2023/09/22 04:24:20;;;;;;;20.30;10.80;;;14.40;86.50;;;;;;4961162;28;20569;-87
2023/09/22 04:26:49;;;;;;;24.20;12.85;;;14.40;86.50;;;;;;4970514;28;20099;-86
2023/09/22 04:29:17;;;;;;;22.20;11.32;;;14.40;86.60;;;;;;5003488;28;20118;-86
2023/09/22 04:31:45;;;;;;;22.63;11.00;;;14.40;86.30;;;;;;4954003;28;20070;-86
2023/09/22 04:34:12;;;;;;;22.07;11.73;;;14.40;86.30;;;;;;4973641;28;20067;-87
2023/09/22 04:36:39;;;;;;;23.30;11.70;;;14.30;86.30;;;;;;4970047;28;20518;-87
2023/09/22 04:39:10;;;;;;;23.25;11.52;;;14.30;86.20;;;;;;4986182;28;20139;-86
2023/09/22 04:41:37;;;;;;;23.80;11.43;;;14.30;86.20;;;;;;4970574;28;20134;-86
2023/09/22 04:44:06;;;;;;;22.73;11.82;;;14.30;86.20;;;;;;4980497;28;20572;-86
2023/09/22 04:46:35;;;;;;;24.03;12.77;;;14.20;86.30;;;;;;4970801;28;20060;-86
2023/09/22 04:49:02;;;;;;;24.38;12.07;;;14.20;86.20;;;;;;5003823;28;20074;-86
2023/09/22 04:51:29;;;;;;;25.17;12.63;;;14.20;86.20;;;;;;5012820;28;20133;-86
2023/09/22 04:53:56;;;;;;;25.70;11.90;;;14.20;86.20;;;;;;5003163;28;20087;-86
2023/09/22 04:56:23;;;;;;;23.20;12.52;;;14.20;86.30;;;;;;4986841;28;20130;-86
2023/09/22 04:58:53;;;;;;;23.83;11.23;;;14.20;86.20;;;;;;4986037;28;20054;-86
2023/09/22 05:01:23;;;;;;;28.58;13.60;;;14.10;86.20;;;;;;4972433;28;20050;-86
2023/09/22 05:03:52;;;;;;;31.27;13.50;;;14.10;86.10;;;;;;4948901;28;20064;-85
2023/09/22 05:06:19;;;;;;;26.77;13.35;;;14.10;86.10;;;;;;4969290;28;20043;-85
2023/09/22 05:08:47;;;;;;;24.92;12.93;;;14.10;86.10;;;;;;4969677;28;20151;-86
2023/09/22 05:11:14;;;;;;;25.93;12.73;;;14.00;86.10;;;;;;4985582;28;20134;-86
2023/09/22 05:13:41;;;;;;;27.70;13.73;;;14.00;86.10;;;;;;4985771;28;20838;-86
2023/09/22 05:16:10;;;;;;;29.45;15.27;;;14.00;86.10;;;;;;4986074;28;20498;-86
2023/09/22 05:18:37;;;;;;;28.95;14.13;;;14.00;86.20;;;;;;5000455;28;20058;-85
2023/09/22 05:21:06;;;;;;;29.00;13.10;;;14.00;86.20;;;;;;4952878;28;20130;-86
2023/09/22 05:23:34;;;;;;;28.70;15.83;;;14.00;86.10;;;;;;4984064;28;20103;-86
2023/09/22 05:26:05;;;;;;;28.95;13.70;;;14.00;86.10;;;;;;4969679;28;20043;-86
2023/09/22 05:28:33;;;;;;;31.73;14.23;;;13.90;86.10;;;;;;4993713;28;20051;-86
2023/09/22 05:31:04;;;;;;;26.38;13.00;;;13.90;86.00;;;;;;4970145;28;20154;-86
2023/09/22 05:33:32;;;;;;;29.80;14.60;;;13.90;86.20;;;;;;4967538;28;20142;-86
2023/09/22 05:35:59;;;;;;;25.97;12.50;;;13.90;86.10;;;;;;5009415;28;20138;-86
2023/09/22 05:38:27;;;;;;;24.83;12.85;;;13.90;86.10;;;;;;4969851;28;20145;-82
2023/09/22 05:40:56;;;;;;;26.67;13.90;;;13.80;86.20;;;;;;4986885;28;20463;-87
2023/09/22 05:43:23;;;;;;;26.20;13.15;;;13.80;86.30;;;;;;4953422;28;20421;-86
2023/09/22 05:45:54;;;;;;;28.33;13.88;;;13.80;86.40;;;;;;4973991;28;20166;-86
2023/09/22 05:48:22;;;;;;;26.77;13.20;;;13.70;86.40;;;;;;5000991;28;20568;-87
2023/09/22 05:50:56;;;;;;;28.35;13.35;;;13.70;86.50;;;;;;4968432;28;20065;-86
2023/09/22 05:53:25;;;;;;;26.08;12.85;;;13.70;86.60;;;;;;5001315;28;20822;-87
2023/09/22 05:56:03;;;;;;;23.48;11.98;;;13.70;86.50;;;;;;4985133;28;20062;-87
2023/09/22 05:58:31;;;;;;;23.58;11.70;;;13.70;86.60;;;;;;4999928;28;20059;-87
2023/09/22 06:00:58;;;;;;;22.17;11.73;;;13.70;86.50;;;;;;4983963;28;20059;-84
2023/09/22 06:03:25;;;;;;;24.33;11.82;;;13.70;86.50;;;;;;4999462;28;20062;-85
2023/09/22 06:05:56;;;;;;;23.60;11.93;;;13.70;86.60;;;;;;4952238;28;20160;-85
2023/09/22 06:08:22;;;;;;;25.58;12.27;;;13.70;86.70;;;;;;4952354;28;20055;-84
2023/09/22 06:10:53;;;;;;;21.48;10.27;;;13.70;86.80;;;;;;4953828;28;20049;-82
2023/09/22 06:13:20;;;;;;;23.83;11.67;;;13.60;86.80;;;;;;4987080;28;20051;-84
2023/09/22 06:15:47;;;;;;;25.35;11.82;;;13.60;86.90;;;;;;4957015;28;20051;-84
2023/09/22 06:18:16;;;;;;;23.85;12.40;;;13.70;87.00;;;;;;4982740;28;20054;-86
2023/09/22 06:20:45;;;;;;;20.08;9.88;;;13.70;86.90;;;;;;4979329;28;20069;-85
2023/09/22 06:23:11;;;;;;;22.00;10.77;;;13.70;86.80;;;;;;4954751;28;20532;-84
2023/09/22 06:25:38;;;;;;;21.33;9.87;;;13.70;86.90;;;;;;4976415;28;20155;-86
2023/09/22 06:28:07;;;;;;;21.92;10.20;;;13.70;87.00;;;;;;4985830;28;20051;-83
2023/09/22 06:30:35;;;;;;;20.98;10.57;;;13.70;87.10;;;;;;4981921;28;20047;-88
2023/09/22 06:33:04;;;;;;;20.98;10.55;;;13.70;87.00;;;;;;5002449;28;20494;-89
2023/09/22 06:35:32;;;;;;;19.30;9.02;;;13.70;86.80;;;;;;4952565;28;20055;-88
2023/09/22 06:37:59;;;;;;;20.80;9.97;;;13.70;86.80;;;;;;5002443;28;20061;-88
2023/09/22 06:40:26;;;;;;;19.15;8.90;;;13.70;87.00;;;;;;4971318;28;20199;-88
2023/09/22 06:42:55;;;;;;;19.50;9.50;;;13.60;87.00;;;;;;4971729;28;20497;-88
2023/09/22 06:45:24;;;;;;;21.90;9.95;;;13.70;87.20;;;;;;4970557;28;20055;-89
2023/09/22 06:47:51;;;;;;;19.98;9.60;;;13.70;87.20;;;;;;4992210;28;20138;-84
2023/09/22 06:50:19;;;;;;;19.03;9.37;;;13.70;87.20;;;;;;4959677;28;20050;-86
2023/09/22 06:52:46;;;;;;;20.33;10.52;;;13.70;87.30;;;;;;5001192;28;20134;-88
2023/09/22 06:55:14;;;;;;;20.50;9.77;;;13.70;87.50;;;;;;4972272;28;20050;-89
2023/09/22 06:57:41;;;;;;;16.67;8.48;;;13.80;87.30;;;;;;4984985;28;20110;-89
2023/09/22 07:00:16;;;;;;;19.25;9.68;;;13.80;87.20;;;;;;4950540;28;20064;-89
2023/09/22 07:02:46;;;;;;;20.33;10.43;;;13.90;87.50;;;;;;4966981;28;20142;-88
2023/09/22 07:05:13;;;;;;;19.17;9.25;;;13.90;87.40;;;;;;5013505;28;20054;-88
2023/09/22 07:07:44;;;;;;;18.05;8.32;;;13.90;87.20;;;;;;5006109;28;20518;-88
2023/09/22 07:10:11;;;;;;;21.23;9.85;;;13.90;87.20;;;;;;5006404;28;20059;-88
2023/09/22 07:12:38;;;;;;;18.73;9.75;;;13.90;87.20;;;;;;5011205;28;20058;-88
2023/09/22 07:15:06;;;;;;;19.83;10.00;;;13.90;87.30;;;;;;4990872;28;20134;-88
2023/09/22 07:17:34;;;;;;;19.35;9.95;;;13.90;87.20;;;;;;5002210;28;20055;-88
2023/09/22 07:20:08;;;;;;;15.52;8.15;;;14.00;87.10;;;;;;5002726;28;20046;-88
2023/09/22 07:22:36;;;;;;;19.25;9.43;;;13.90;87.10;;;;;;5001633;28;20102;-88
2023/09/22 07:25:03;;;;;;;18.58;9.45;;;14.00;87.00;;;;;;4985812;28;20054;-88
2023/09/22 07:27:30;;;;;;;17.50;8.23;;;14.00;86.90;;;;;;5002165;28;20055;-88
2023/09/22 07:29:57;;;;;;;16.13;8.55;;;14.00;86.90;;;;;;5008587;28;20062;-88
2023/09/22 07:32:25;;;;;;;15.48;7.97;;;14.00;86.80;;;;;;4988609;28;20089;-88
2023/09/22 07:34:53;;;;;;;17.67;8.52;;;14.00;86.90;;;;;;4990156;28;20667;-89
2023/09/22 07:37:21;;;;;;;17.13;8.48;;;14.00;86.90;;;;;;4966478;28;20079;-88
2023/09/22 07:39:48;;;;;;;13.00;7.30;;;14.00;86.90;;;;;;4969162;28;20054;-89
2023/09/22 07:42:15;;;;;;;16.85;7.97;;;14.00;86.70;;;;;;4980084;28;20052;-85
2023/09/22 07:44:43;;;;;;;12.15;6.45;;;14.00;86.50;;;;;;5002791;28;20059;-86
2023/09/22 07:47:13;;;;;;;14.18;7.47;;;14.00;86.30;;;;;;4971391;28;20043;-87
2023/09/22 07:49:42;;;;;;;14.75;7.25;;;14.00;86.50;;;;;;4950259;28;20142;-85
2023/09/22 07:52:10;;;;;;;13.83;7.40;;;14.00;86.70;;;;;;4950975;28;20065;-85
2023/09/22 07:55:05;;;;;;;15.50;7.35;;;14.00;86.70;;;;;;4967613;28;20109;-86
2023/09/22 07:57:33;;;;;;;13.50;7.60;;;14.10;86.80;;;;;;4984704;28;20081;-86
2023/09/22 08:00:01;;;;;;;15.55;7.07;;;14.10;86.90;;;;;;4952470;28;20063;-86
2023/09/22 08:02:38;;;;;;;13.90;6.57;;;14.10;87.00;;;;;;4984111;28;20055;-86
2023/09/22 08:05:07;;;;;;;15.63;7.20;;;14.10;87.00;;;;;;4969273;28;20142;-86
2023/09/22 08:07:34;;;;;;;15.05;6.20;;;14.10;87.20;;;;;;4998841;28;21019;-86
2023/09/22 08:10:02;;;;;;;13.10;6.18;;;14.20;87.20;;;;;;5000636;28;20149;-87
2023/09/22 08:12:30;;;;;;;12.30;6.13;;;14.20;87.00;;;;;;4970998;28;20063;-86
2023/09/22 08:14:58;;;;;;;13.82;6.00;;;14.20;87.10;;;;;;4996722;28;20120;-87
2023/09/22 08:17:25;;;;;;;10.77;5.83;;;14.20;87.20;;;;;;4955743;28;20079;-85
2023/09/22 08:19:52;;;;;;;11.10;5.10;;;14.30;86.90;;;;;;5004020;28;20059;-88
2023/09/22 08:22:20;;;;;;;12.30;5.63;;;14.30;86.50;;;;;;5000391;28;20047;-86
2023/09/22 08:24:47;;;;;;;11.20;4.72;;;14.30;86.30;;;;;;4955548;28;20524;-86
2023/09/22 08:27:15;;;;;;;9.45;4.70;;;14.40;86.20;;;;;;4975885;28;20505;-84
2023/09/22 08:29:44;;;;;;;10.50;4.87;;;14.40;86.10;;;;;;4997663;28;20167;-85
2023/09/22 08:32:11;;;;;;;9.00;4.43;;;14.40;85.50;;;;;;4988465;28;20058;-84
2023/09/22 08:34:39;;;;;;;9.35;4.13;;;14.40;85.30;;;;;;4971621;28;20051;-87
2023/09/22 08:37:06;;;;;;;8.13;3.58;;;14.40;85.30;;;;;;4984221;28;20441;-86
2023/09/22 08:39:33;;;;;;;7.22;3.35;;;14.50;84.70;;;;;;4979245;28;20047;-86
2023/09/22 08:42:01;;;;;;;8.50;3.30;;;14.50;83.70;;;;;;4985229;28;20055;-85
2023/09/22 08:44:29;;;;;;;8.93;3.35;;;14.50;83.80;;;;;;5002033;28;20527;-86
2023/09/22 08:46:58;;;;;;;7.45;3.28;;;14.50;83.60;;;;;;4986786;28;20130;-86
2023/09/22 08:49:26;;;;;;;8.25;3.17;;;14.60;83.60;;;;;;4984970;28;20064;-84
2023/09/22 08:51:54;;;;;;;6.90;3.00;;;14.60;83.80;;;;;;4974595;28;20488;-87
2023/09/22 08:54:21;;;;;;;6.87;2.80;;;14.60;83.50;;;;;;4955629;28;20612;-86
2023/09/22 08:56:50;;;;;;;8.07;2.80;;;14.60;83.20;;;;;;4952229;28;20059;-88
2023/09/22 08:59:18;;;;;;;6.18;2.42;;;14.60;82.80;;;;;;4970721;28;20051;-88
2023/09/22 09:01:45;;;;;;;5.30;2.60;;;14.70;82.40;;;;;;4986745;28;20516;-85
2023/09/22 09:04:33;;;;;;;5.93;2.00;;;14.70;81.70;;;;;;4987142;28;20055;-86
2023/09/22 09:07:04;;;;;;;5.53;2.20;;;14.70;81.20;;;;;;4985014;28;20055;-86
2023/09/22 09:09:43;;;;;;;5.45;2.20;;;14.70;80.70;;;;;;5003013;28;20051;-85
2023/09/22 09:12:12;;;;;;;4.15;1.50;;;14.70;80.10;;;;;;4980068;28;20113;-90
2023/09/22 09:14:40;;;;;;;5.82;2.35;;;14.70;79.80;;;;;;4962913;28;20078;-90
2023/09/22 09:17:21;;;;;;;4.13;2.20;;;14.60;80.40;;;;;;4997096;28;20055;-89
2023/09/22 09:19:54;;;;;;;5.00;2.20;;;14.60;80.00;;;;;;5011626;28;20126;-89
2023/09/22 09:22:32;;;;;;;4.20;1.95;;;14.70;79.80;;;;;;4977242;28;20525;-90
2023/09/22 09:25:00;;;;;;;4.63;1.88;;;14.70;79.10;;;;;;5012750;28;20056;-89
2023/09/22 09:27:27;;;;;;;3.20;1.70;;;14.70;79.30;;;;;;5004262;28;20062;-89
2023/09/22 09:29:55;;;;;;;5.18;1.73;;;14.70;79.70;;;;;;4955524;28;20059;-90
2023/09/22 09:32:24;;;;;;;3.60;1.50;;;14.70;79.60;;;;;;4975089;28;20077;-90
2023/09/22 09:34:53;;;;;;;4.53;2.00;;;14.70;78.20;;;;;;5003092;28;20102;-89
2023/09/22 09:37:21;;;;;;;5.53;1.98;;;14.70;78.60;;;;;;5003301;28;20055;-90
2023/09/22 09:39:50;;;;;;;4.45;1.88;;;14.80;78.10;;;;;;4956726;28;20059;-89
2023/09/22 09:42:19;;;;;;;3.97;1.85;;;14.80;78.20;;;;;;4986691;28;20114;-90
2023/09/22 09:44:50;;;;;;;5.27;2.17;;;14.90;78.30;;;;;;4988578;28;20137;-89
2023/09/22 09:47:24;;;;;;;4.80;1.80;;;14.90;78.30;;;;;;4956782;28;20059;-90
2023/09/22 09:49:54;;;;;;;6.03;1.90;;;14.90;77.70;;;;;;4995588;28;20522;-89
2023/09/22 09:52:27;;;;;;;4.70;1.55;;;15.00;77.50;;;;;;4956813;28;20087;-90
2023/09/22 09:55:07;;;;;;;4.97;1.65;;;15.00;77.50;;;;;;4986757;28;20062;-89
2023/09/22 09:57:38;;;;;;;4.70;1.00;;;15.00;77.10;;;;;;4954037;28;20066;-90
2023/09/22 10:00:12;;;;;;;4.00;0.98;;;15.00;76.40;;;;;;5002485;28;20543;-90
2023/09/22 10:02:44;;;;;;;3.67;1.05;;;15.00;76.10;;;;;;4986422;28;20154;-89
2023/09/22 10:05:16;;;;;;;3.22;1.00;;;15.20;75.00;;;;;;5002685;28;20485;-89
2023/09/22 10:07:43;;;;;;;3.30;1.00;;;15.30;75.30;;;;;;5006023;28;20066;-89
2023/09/22 10:10:12;;;;;;;4.03;0.80;;;15.30;75.70;;;;;;5002482;28;20055;-89
2023/09/22 10:12:40;;;;;;;4.25;0.90;;;15.40;75.40;;;;;;4986374;28;20051;-89
2023/09/22 10:15:09;;;;;;;3.72;0.77;;;15.50;74.70;;;;;;4970268;28;20110;-89
2023/09/22 10:17:36;;;;;;;3.60;0.80;;;15.50;74.50;;;;;;4970067;28;20439;-89
2023/09/22 10:20:11;;;;;;;3.65;0.90;;;15.60;72.50;;;;;;4954367;28;20047;-90
2023/09/22 10:22:41;;;;;;;5.93;0.80;;;15.70;73.00;;;;;;4985200;28;20067;-89
2023/09/22 10:25:21;;;;;;;3.58;1.00;;;15.80;73.20;;;;;;4993580;28;20055;-89
2023/09/22 10:27:56;;;;;;;3.03;0.80;;;15.80;72.70;;;;;;4986005;28;20120;-89
2023/09/22 10:30:30;;;;;;;3.05;1.00;;;15.80;72.70;;;;;;4985969;28;20055;-89
2023/09/22 10:33:30;;;;;;;3.05;0.80;;;16.00;72.30;;;;;;5001864;28;20083;-89
2023/09/22 10:35:57;;;;;;;3.23;0.90;;;16.00;72.80;;;;;;4993855;28;20055;-89
2023/09/22 10:38:58;;;;;;;3.25;0.82;;;16.00;72.60;;;;;;4954348;28;20134;-89
2023/09/22 10:41:36;;;;;;;4.20;1.20;;;16.10;72.20;;;;;;4971439;28;20070;-89
2023/09/22 10:44:08;;;;;;;4.15;0.85;;;16.20;71.40;;;;;;4999129;28;20067;-89
2023/09/22 10:46:56;;;;;;;5.15;1.10;;;16.20;71.60;;;;;;4985442;28;20047;-89
2023/09/22 10:49:29;;;;;;;2.83;0.90;;;16.40;70.50;;;;;;4989749;28;20051;-89
2023/09/22 10:51:57;;;;;;;4.32;0.70;;;16.40;70.70;;;;;;4968429;28;20058;-89
2023/09/22 10:54:30;;;;;;;4.57;1.00;;;16.40;71.70;;;;;;4991732;28;20102;-87
2023/09/22 10:56:58;;;;;;;4.10;1.15;;;16.40;72.00;;;;;;4952690;28;20051;-89
2023/09/22 10:59:33;;;;;;;4.97;1.35;;;16.50;71.10;;;;;;4984447;28;20051;-88
2023/09/22 11:02:01;;;;;;;3.70;1.27;;;16.40;70.80;;;;;;4975276;28;20047;-89
2023/09/22 11:04:41;;;;;;;3.65;1.33;;;16.40;71.00;;;;;;4971575;28;20051;-89
2023/09/22 11:07:11;;;;;;;4.32;1.23;;;16.40;71.40;;;;;;4981272;28;20539;-89
2023/09/22 11:09:39;;;;;;;4.05;1.50;;;16.40;72.10;;;;;;4965498;28;20051;-89
2023/09/22 11:12:07;;;;;;;3.25;0.95;;;16.40;70.70;;;;;;4984845;28;20055;-89
2023/09/22 11:14:36;;;;;;;3.57;1.13;;;16.40;70.50;;;;;;4985603;28;20565;-89
2023/09/22 11:17:04;;;;;;;3.63;1.10;;;16.50;70.20;;;;;;4999902;28;20138;-89
2023/09/22 11:19:32;;;;;;;3.38;1.00;;;16.50;68.90;;;;;;5002389;28;20142;-89
2023/09/22 11:22:01;;;;;;;3.08;1.08;;;16.60;67.50;;;;;;5001102;28;20051;-89
2023/09/22 11:24:28;;;;;;;3.13;0.98;;;16.50;67.30;;;;;;5004816;28;20122;-89
2023/09/22 11:27:05;;;;;;;3.23;1.00;;;16.50;67.90;;;;;;4958254;28;20518;-89
2023/09/22 11:29:33;;;;;;;2.95;1.20;;;16.50;67.80;;;;;;4954666;28;20572;-88
2023/09/22 11:32:00;;;;;;;2.90;1.27;;;16.50;68.40;;;;;;5001562;28;20059;-89
2023/09/22 11:34:31;;;;;;;2.92;1.20;;;16.50;67.90;;;;;;4984767;28;20141;-89
2023/09/22 11:36:58;;;;;;;3.58;1.20;;;16.50;68.60;;;;;;4969152;28;20062;-89
2023/09/22 11:39:26;;;;;;;3.27;1.23;;;16.50;68.40;;;;;;4992072;28;20425;-89
2023/09/22 11:41:55;;;;;;;2.80;1.10;;;16.50;68.90;;;;;;4974528;28;20059;-89
2023/09/22 11:44:25;;;;;;;2.92;1.35;;;16.60;69.00;;;;;;5001408;28;20051;-89
2023/09/22 11:46:53;;;;;;;3.95;1.30;;;16.60;69.00;;;;;;4979338;28;20059;-89
2023/09/22 11:49:20;;;;;;;3.55;1.50;;;16.60;68.90;;;;;;5004027;28;20079;-89
2023/09/22 11:51:56;;;;;;;3.30;1.40;;;16.60;68.90;;;;;;4956108;28;20059;-89
2023/09/22 11:54:25;;;;;;;4.68;1.77;;;16.70;68.70;;;;;;5004749;28;20063;-89
2023/09/22 11:56:55;;;;;;;3.28;1.02;;;16.70;68.80;;;;;;4990864;28;20051;-89
2023/09/22 11:59:26;;;;;;;3.55;1.40;;;16.80;68.40;;;;;;4972034;28;20075;-89
2023/09/22 12:01:54;;;;;;;3.45;1.77;;;16.80;68.70;;;;;;4957628;28;20054;-89
2023/09/22 12:04:22;;;;;;;3.47;1.70;;;16.80;69.10;;;;;;4990772;28;20059;-89
2023/09/22 12:06:50;;;;;;;3.63;1.50;;;16.90;68.70;;;;;;5015948;28;20558;-89
2023/09/22 12:09:18;;;;;;;4.18;1.30;;;16.90;68.30;;;;;;4986629;28;20150;-89
2023/09/22 12:11:46;;;;;;;3.33;1.30;;;17.00;68.20;;;;;;4987573;28;20056;-88
2023/09/22 12:14:13;;;;;;;3.40;1.50;;;17.00;68.40;;;;;;4960871;28;20055;-89
2023/09/22 12:16:43;;;;;;;3.80;1.30;;;17.00;67.80;;;;;;4988104;28;20062;-90
2023/09/22 12:19:11;;;;;;;4.63;1.60;;;17.00;67.80;;;;;;4993773;28;20341;-90
2023/09/22 12:21:39;;;;;;;3.78;1.40;;;17.10;67.70;;;;;;5003309;28;20911;-90
2023/09/22 12:24:06;;;;;;;3.88;1.70;;;17.10;67.20;;;;;;4988319;28;20517;-88
2023/09/22 12:26:35;;;;;;;3.58;1.17;;;17.10;66.40;;;;;;4955888;28;20142;-90
2023/09/22 12:29:05;;;;;;;2.77;1.03;;;17.10;65.80;;;;;;4973613;28;20054;-89
2023/09/22 12:31:33;;;;;;;3.13;0.90;;;17.00;66.00;;;;;;5003515;28;20130;-89
2023/09/22 12:34:01;;;;;;;3.67;1.30;;;17.00;66.60;;;;;;4960832;28;20054;-88
2023/09/22 12:36:29;;;;;;;2.75;1.00;;;17.00;66.70;;;;;;4987136;28;20138;-90
2023/09/22 12:38:56;;;;;;;3.20;1.05;;;17.00;67.30;;;;;;4976710;28;20117;-89
2023/09/22 12:41:24;;;;;;;3.33;1.13;;;16.90;67.30;;;;;;5005315;28;20804;-89
2023/09/22 12:43:52;;;;;;;2.90;1.10;;;16.90;67.90;;;;;;4971706;28;20075;-89
2023/09/22 12:46:19;;;;;;;4.07;1.10;;;16.90;68.00;;;;;;4971664;28;20063;-89
2023/09/22 12:48:46;;;;;;;3.30;1.40;;;16.90;67.50;;;;;;5004399;28;20059;-89